Aviation Digital Data Service (ADDS)

Output produced by METARs form (2233 UTC 30 March 2017)
found at http://www.aviationweather.gov/adds/metars/
 
MBGT 302230Z 3100/0100 10015KT 9999 FEW020
       
MBPV 302230Z 3100/0100 10015KT 9999 FEW020